Time;durP1;ratioP1;P1;durP2;ratioP2;P2;SDS_P1;SDS_P2;PMS_P1;PMS_P2;Temp;Humidity;BMP_temperature;BMP_pressure;BME280_temperature;BME280_humidity;BME280_pressure;Samples;Min_cycle;Max_cycle;Signal;HPM_P1;HPM_P2
2023/03/29 00:01:29;;;;;;;8.02;6.78;;;102.80;2227.20;;;;;;5051776;28;20025;-68
2023/03/29 00:03:59;;;;;;;8.50;5.05;;;102.80;2227.20;;;;;;5051634;28;20107;-63
2023/03/29 00:06:30;;;;;;;6.65;4.60;;;102.80;2227.20;;;;;;5052384;28;20116;-64
2023/03/29 00:08:55;;;;;;;6.20;2.40;;;102.90;2227.20;;;;;;5051798;28;20493;-68
2023/03/29 00:11:21;;;;;;;6.85;2.92;;;102.90;2227.20;;;;;;5051911;28;20041;-63
2023/03/29 00:13:48;;;;;;;5.93;3.42;;;103.00;2227.20;;;;;;5051327;28;20025;-64
2023/03/29 00:16:14;;;;;;;6.65;3.60;;;103.00;2227.20;;;;;;5051600;28;20032;-64
2023/03/29 00:18:40;;;;;;;6.53;2.80;;;103.00;2227.20;;;;;;5051329;28;20025;-64
2023/03/29 00:21:06;;;;;;;7.85;2.53;;;103.00;2227.20;;;;;;5051705;28;20033;-63
2023/03/29 00:23:31;;;;;;;5.25;2.17;;;103.10;2227.20;;;;;;5051574;28;20032;-67
2023/03/29 00:25:57;;;;;;;15.88;5.32;;;103.10;2227.20;;;;;;5051633;28;20025;-67
2023/03/29 00:28:24;;;;;;;7.90;3.30;;;103.00;2227.20;;;;;;5051231;28;20383;-64
2023/03/29 00:30:50;;;;;;;6.57;3.55;;;103.10;2227.20;;;;;;5051358;28;20021;-64
2023/03/29 00:33:20;;;;;;;4.38;2.47;;;103.20;2227.20;;;;;;5038219;28;20112;-64
2023/03/29 00:35:47;;;;;;;7.55;2.63;;;103.20;2227.20;;;;;;5051206;28;20064;-64
2023/03/29 00:38:16;;;;;;;4.65;2.58;;;103.20;2227.20;;;;;;5047400;28;20394;-66
2023/03/29 00:40:45;;;;;;;6.30;2.70;;;128.00;2252.80;;;;;;5041887;28;20036;-63
2023/03/29 00:43:12;;;;;;;4.25;2.30;;;103.30;2227.20;;;;;;5050770;28;20451;-68
2023/03/29 00:45:38;;;;;;;3.88;2.33;;;103.30;2227.20;;;;;;5040047;28;20483;-63
2023/03/29 00:48:11;;;;;;;5.53;2.70;;;103.20;2227.20;;;;;;5048865;28;20028;-64
2023/03/29 00:50:47;;;;;;;6.53;3.10;;;103.30;2227.20;;;;;;5039166;28;20036;-63
2023/03/29 00:53:26;;;;;;;7.22;3.67;;;103.20;2227.20;;;;;;5038289;28;20307;-62
2023/03/29 00:56:01;;;;;;;6.97;2.55;;;103.20;2227.20;;;;;;5050878;28;20033;-61
2023/03/29 00:58:37;;;;;;;5.90;2.72;;;103.30;2227.20;;;;;;5041151;28;20414;-61
2023/03/29 01:01:10;;;;;;;34.40;13.77;;;103.20;2227.20;;;;;;5049201;28;20040;-61
2023/03/29 01:03:44;;;;;;;;;;;103.30;2227.20;;;;;;5050683;28;20039;-61
2023/03/29 01:06:12;;;;;;;5.13;2.92;;;103.20;2227.20;;;;;;5050852;28;19916;-62
2023/03/29 01:08:48;;;;;;;6.22;2.80;;;103.20;2227.20;;;;;;5050674;28;20033;-62
2023/03/29 01:11:33;;;;;;;3.78;2.65;;;103.30;2227.20;;;;;;5041547;28;20026;-61
2023/03/29 01:14:06;;;;;;;15.88;8.30;;;128.00;2252.80;;;;;;5048862;28;20079;-62
2023/03/29 01:16:34;;;;;;;;;;;128.00;2252.80;;;;;;5051102;28;20028;-66
2023/03/29 01:19:01;;;;;;;7.15;2.63;;;103.30;2227.20;;;;;;5050801;28;20302;-62
2023/03/29 01:21:41;;;;;;;7.97;4.88;;;103.30;2227.20;;;;;;5049982;28;20400;-66
2023/03/29 01:24:10;;;;;;;6.45;3.45;;;103.30;2227.20;;;;;;5039473;28;20540;-67
2023/03/29 01:26:51;;;;;;;6.07;2.70;;;103.30;2227.20;;;;;;5050552;28;20025;-63
2023/03/29 01:29:46;;;;;;;8.75;5.18;;;103.30;2227.20;;;;;;5050112;28;20070;-63
2023/03/29 01:32:36;;;;;;;4.78;2.67;;;128.00;2252.80;;;;;;5028095;28;20025;-63
2023/03/29 01:35:17;;;;;;;6.88;2.28;;;128.00;2252.80;;;;;;5049350;28;20057;-63
2023/03/29 01:37:49;;;;;;;4.40;2.33;;;128.00;2252.80;;;;;;5050168;28;20029;-62
2023/03/29 01:40:15;;;;;;;37.25;33.53;;;103.30;2227.20;;;;;;5041815;28;20057;-64
2023/03/29 01:42:59;;;;;;;11.77;5.75;;;103.30;2227.20;;;;;;5017634;28;20419;-63
2023/03/29 01:45:37;;;;;;;3.83;2.75;;;103.30;2227.20;;;;;;5049805;28;20136;-62
2023/03/29 01:48:08;;;;;;;4.53;2.85;;;103.30;2227.20;;;;;;5050169;28;20104;-63
2023/03/29 01:50:37;;;;;;;4.00;2.55;;;103.30;2227.20;;;;;;5049405;28;20029;-65
2023/03/29 01:53:09;;;;;;;10.40;2.85;;;103.30;2227.20;;;;;;5049865;28;20021;-62
2023/03/29 01:55:39;;;;;;;4.80;2.85;;;103.30;2227.20;;;;;;5049836;28;20175;-63
2023/03/29 01:58:08;;;;;;;8.73;4.20;;;103.30;2227.20;;;;;;5049972;28;20025;-63
2023/03/29 02:00:35;;;;;;;8.48;3.85;;;103.30;2227.20;;;;;;5049058;28;20025;-63
2023/03/29 02:03:08;;;;;;;8.75;3.67;;;103.30;2227.20;;;;;;5049378;28;20112;-63
2023/03/29 02:05:35;;;;;;;7.05;3.67;;;103.30;2227.20;;;;;;5049238;28;20033;-63
2023/03/29 02:08:04;;;;;;;6.05;3.22;;;103.20;2227.20;;;;;;5049353;28;20044;-67
2023/03/29 02:10:30;;;;;;;6.10;2.40;;;103.30;2227.20;;;;;;5049097;28;20021;-65
2023/03/29 02:12:57;;;;;;;3.75;2.67;;;103.20;2227.20;;;;;;5049745;28;20420;-63
2023/03/29 02:15:23;;;;;;;8.38;3.30;;;103.10;2227.20;;;;;;5049085;28;20048;-63
2023/03/29 02:17:49;;;;;;;5.97;2.70;;;103.00;2227.20;;;;;;5049362;28;20025;-62
2023/03/29 02:20:26;;;;;;;4.72;3.20;;;103.00;2227.20;;;;;;5049425;28;20074;-62
2023/03/29 02:23:01;;;;;;;4.00;2.35;;;103.00;2227.20;;;;;;5049355;28;20536;-63
2023/03/29 02:25:28;;;;;;;5.22;2.70;;;102.90;2227.20;;;;;;5035795;28;20074;-63
2023/03/29 02:27:55;;;;;;;3.95;2.85;;;102.90;2227.20;;;;;;5049516;28;20025;-65
2023/03/29 02:30:23;;;;;;;3.35;1.98;;;102.80;2227.20;;;;;;5034967;28;20451;-68
2023/03/29 02:32:52;;;;;;;6.45;2.97;;;102.70;2227.20;;;;;;5048755;28;20027;-66
2023/03/29 02:35:43;;;;;;;5.30;2.65;;;102.70;2227.20;;;;;;5048937;28;20056;-64
2023/03/29 02:38:10;;;;;;;4.53;3.03;;;102.60;2227.20;;;;;;5049056;28;20475;-64
2023/03/29 02:40:38;;;;;;;5.20;3.00;;;102.60;2227.20;;;;;;5049304;28;20115;-60
2023/03/29 02:43:05;;;;;;;9.35;3.75;;;102.60;2227.20;;;;;;5048857;28;20021;-64
2023/03/29 02:45:32;;;;;;;5.07;2.40;;;102.60;2227.20;;;;;;5048807;28;20033;-67
2023/03/29 02:48:02;;;;;;;5.03;2.30;;;102.70;2227.20;;;;;;5049138;28;20036;-63
2023/03/29 02:50:35;;;;;;;5.97;2.33;;;102.80;2227.20;;;;;;5049025;28;20111;-64
2023/03/29 02:53:33;;;;;;;4.05;2.38;;;102.70;2227.20;;;;;;5048934;28;20027;-68
2023/03/29 02:56:01;;;;;;;6.85;2.67;;;102.70;2227.20;;;;;;5045867;28;20446;-65
2023/03/29 02:58:27;;;;;;;4.07;2.40;;;102.80;2227.20;;;;;;5047078;28;20052;-70
2023/03/29 03:00:55;;;;;;;7.53;3.30;;;102.80;2227.20;;;;;;5046057;28;20077;-70
2023/03/29 03:03:21;;;;;;;5.10;2.70;;;102.80;2227.20;;;;;;5046158;28;20029;-62
2023/03/29 03:05:47;;;;;;;4.55;2.63;;;102.80;2227.20;;;;;;5046835;28;20144;-67
2023/03/29 03:08:14;;;;;;;4.20;2.70;;;102.90;2227.20;;;;;;5046470;28;20025;-64
2023/03/29 03:10:40;;;;;;;4.57;2.80;;;102.80;2227.20;;;;;;5046428;28;20025;-62
2023/03/29 03:13:06;;;;;;;2.97;2.03;;;102.80;2227.20;;;;;;5046461;28;20119;-63
2023/03/29 03:15:34;;;;;;;3.65;2.50;;;102.80;2227.20;;;;;;5046164;28;20065;-62
2023/03/29 03:18:02;;;;;;;6.13;2.70;;;102.80;2227.20;;;;;;5046213;28;20017;-67
2023/03/29 03:20:28;;;;;;;5.88;3.50;;;102.80;2227.20;;;;;;5046187;28;20545;-62
2023/03/29 03:22:56;;;;;;;4.50;2.75;;;102.90;2227.20;;;;;;5046209;28;20029;-61
2023/03/29 03:25:21;;;;;;;4.90;2.58;;;102.90;2227.20;;;;;;5045902;28;20037;-66
2023/03/29 03:27:49;;;;;;;4.70;2.90;;;102.90;2227.20;;;;;;5048292;28;20037;-62
2023/03/29 03:30:16;;;;;;;4.30;2.85;;;103.00;2227.20;;;;;;5050277;28;20055;-64
2023/03/29 03:32:45;;;;;;;4.90;2.55;;;103.00;2227.20;;;;;;5051167;28;20052;-62
2023/03/29 03:35:11;;;;;;;6.55;3.05;;;103.00;2227.20;;;;;;5051792;28;20088;-62
2023/03/29 03:37:40;;;;;;;5.10;2.70;;;103.00;2227.20;;;;;;5052613;28;20029;-62
2023/03/29 03:40:07;;;;;;;3.22;2.30;;;103.00;2227.20;;;;;;5052331;28;20110;-66
2023/03/29 03:42:33;;;;;;;5.65;3.22;;;103.10;2227.20;;;;;;5039383;28;20471;-66
2023/03/29 03:44:59;;;;;;;6.57;2.20;;;103.10;2227.20;;;;;;5051778;28;20078;-65
2023/03/29 03:47:24;;;;;;;5.88;2.70;;;103.00;2227.20;;;;;;5052271;28;20013;-62
2023/03/29 03:49:50;;;;;;;3.13;2.00;;;103.10;2227.20;;;;;;5052231;28;20025;-62
2023/03/29 03:52:17;;;;;;;4.00;2.35;;;103.10;2227.20;;;;;;5039201;28;20383;-62
2023/03/29 03:54:45;;;;;;;5.70;3.10;;;103.10;2227.20;;;;;;5050997;28;20040;-69
2023/03/29 03:57:11;;;;;;;7.22;2.45;;;103.00;2227.20;;;;;;5052055;28;20017;-69
2023/03/29 03:59:37;;;;;;;5.72;2.88;;;103.10;2227.20;;;;;;5051866;28;20111;-61
2023/03/29 04:02:04;;;;;;;8.13;2.58;;;103.00;2201.60;;;;;;5051342;28;20037;-60
2023/03/29 04:04:30;;;;;;;7.95;3.30;;;103.00;2176.00;;;;;;5051818;28;20017;-61
2023/03/29 04:07:01;;;;;;;6.20;3.70;;;103.10;2150.40;;;;;;5051694;28;20032;-61
2023/03/29 04:09:28;;;;;;;7.65;3.08;;;103.00;2176.00;;;;;;5051979;28;20036;-61
2023/03/29 04:11:55;;;;;;;5.53;3.08;;;103.00;2176.00;;;;;;5038772;28;20033;-62
2023/03/29 04:14:21;;;;;;;3.42;2.20;;;103.00;2176.00;;;;;;5051415;28;20028;-67
2023/03/29 04:16:46;;;;;;;4.88;2.78;;;102.90;2176.00;;;;;;5051409;28;20025;-62
2023/03/29 04:19:13;;;;;;;5.80;2.33;;;102.90;2176.00;;;;;;5051585;28;20036;-62
2023/03/29 04:21:39;;;;;;;5.07;2.30;;;102.90;2150.40;;;;;;5051879;28;20036;-62
2023/03/29 04:24:05;;;;;;;4.72;2.53;;;102.90;2176.00;;;;;;5051484;28;20507;-63
2023/03/29 04:26:30;;;;;;;6.88;2.60;;;102.80;2201.60;;;;;;5051262;28;20116;-65
2023/03/29 04:28:56;;;;;;;5.82;2.65;;;102.80;2201.60;;;;;;5051581;28;20096;-63
2023/03/29 04:31:22;;;;;;;5.70;2.60;;;102.80;2176.00;;;;;;5050720;28;20364;-62
2023/03/29 04:33:48;;;;;;;5.72;3.08;;;102.80;2176.00;;;;;;5050972;28;20029;-62
2023/03/29 04:36:14;;;;;;;6.53;3.20;;;102.80;2201.60;;;;;;5051195;28;20039;-62
2023/03/29 04:38:41;;;;;;;8.60;4.18;;;102.70;2201.60;;;;;;5050326;28;20104;-64
2023/03/29 04:41:12;;;;;;;11.20;4.78;;;102.80;2201.60;;;;;;5051215;28;20055;-63
2023/03/29 04:43:40;;;;;;;22.73;13.68;;;102.80;2150.40;;;;;;5051655;28;20094;-62
2023/03/29 04:46:06;;;;;;;62.65;31.42;;;102.80;2176.00;;;;;;5042300;28;20139;-61
2023/03/29 04:48:33;;;;;;;39.17;20.63;;;102.90;2176.00;;;;;;5030028;28;20032;-63
2023/03/29 04:50:59;;;;;;;27.85;15.00;;;102.90;2150.40;;;;;;5031233;28;20028;-70
2023/03/29 04:53:25;;;;;;;25.67;10.57;;;103.00;2150.40;;;;;;5040100;28;20025;-62
2023/03/29 04:55:52;;;;;;;12.23;6.43;;;103.00;2201.60;;;;;;5050891;28;20403;-64
2023/03/29 04:58:17;;;;;;;10.68;6.38;;;102.90;2176.00;;;;;;5051332;28;20036;-64
2023/03/29 05:00:44;;;;;;;10.38;5.50;;;102.90;2201.60;;;;;;5050638;28;20021;-65
2023/03/29 05:03:12;;;;;;;14.43;6.18;;;102.90;2201.60;;;;;;5049832;28;20398;-63
2023/03/29 05:05:37;;;;;;;14.27;6.35;;;102.90;2227.20;;;;;;5050499;28;20481;-66
2023/03/29 05:08:03;;;;;;;16.30;8.98;;;103.00;2227.20;;;;;;5050824;28;20100;-67
2023/03/29 05:10:29;;;;;;;17.48;9.05;;;128.40;2201.60;;;;;;5050663;28;20360;-63
2023/03/29 05:12:55;;;;;;;12.35;6.88;;;128.30;2176.00;;;;;;5050885;28;20032;-65
2023/03/29 05:15:21;;;;;;;15.88;8.30;;;128.30;2176.00;;;;;;5049719;28;20436;-68
2023/03/29 05:17:47;;;;;;;10.40;6.00;;;128.50;2176.00;;;;;;5050518;28;20025;-65
2023/03/29 05:20:14;;;;;;;17.23;9.95;;;128.80;2099.20;;;;;;5050200;28;20367;-65
2023/03/29 05:22:40;;;;;;;18.67;10.98;;;128.90;2124.80;;;;;;5050902;28;20029;-67
2023/03/29 05:25:07;;;;;;;12.68;7.85;;;153.60;2073.60;;;;;;5050078;28;20029;-65
2023/03/29 05:27:33;;;;;;;31.70;21.23;;;153.60;2073.60;;;;;;5050554;28;20033;-67
2023/03/29 05:30:00;;;;;;;21.95;11.30;;;153.70;2048.00;;;;;;5049923;28;20025;-65
2023/03/29 05:32:26;;;;;;;35.88;20.73;;;128.90;2048.00;;;;;;5049960;28;20041;-62
2023/03/29 05:34:52;;;;;;;57.22;35.20;;;128.70;2099.20;;;;;;5045651;28;20064;-62
2023/03/29 05:37:18;;;;;;;81.45;49.90;;;128.60;2176.00;;;;;;5030307;28;20021;-62
2023/03/29 05:39:44;;;;;;;105.20;76.10;;;128.80;2201.60;;;;;;5030129;28;20075;-61
2023/03/29 05:42:12;;;;;;;43.40;27.15;;;154.30;2099.20;;;;;;5030311;28;20121;-62
2023/03/29 05:44:39;;;;;;;25.45;16.25;;;179.40;2099.20;;;;;;5030125;28;20079;-62
2023/03/29 05:47:05;;;;;;;101.68;63.47;;;154.50;2124.80;;;;;;5030017;28;20029;-62
2023/03/29 05:49:31;;;;;;;47.20;30.52;;;154.50;2099.20;;;;;;5029759;28;20022;-67
2023/03/29 05:51:57;;;;;;;29.60;18.80;;;204.80;2022.40;;;;;;5028961;28;20108;-63
2023/03/29 05:54:24;;;;;;;35.00;22.58;;;205.60;1945.60;;;;;;5046197;28;20064;-64
2023/03/29 05:56:50;;;;;;;34.38;27.27;;;230.60;1843.20;;;;;;5039145;28;20544;-64
2023/03/29 05:59:16;;;;;;;46.53;34.90;;;205.30;1894.40;;;;;;5029854;28;20055;-62
2023/03/29 06:01:45;;;;;;;19.30;15.55;;;230.80;1817.60;;;;;;5029648;28;20108;-65
2023/03/29 06:04:12;;;;;;;14.43;10.05;;;256.40;1740.80;;;;;;5029896;28;20021;-67
2023/03/29 06:06:38;;;;;;;45.35;40.97;;;256.80;1664.00;;;;;;5029891;28;20471;-65
2023/03/29 06:09:04;;;;;;;42.92;38.63;;;282.40;1612.80;;;;;;5029537;28;20175;-65
2023/03/29 06:11:31;;;;;;;10.57;9.02;;;307.90;1587.20;;;;;;5029694;28;20021;-66
2023/03/29 06:13:57;;;;;;;13.18;7.45;;;384.10;1459.20;;;;;;5029488;28;20021;-64
2023/03/29 06:16:24;;;;;;;17.48;14.52;;;435.60;1305.60;;;;;;5041494;28;20024;-63
2023/03/29 06:18:49;;;;;;;11.18;7.05;;;461.20;1280.00;;;;;;5048938;28;20013;-63
2023/03/29 06:21:15;;;;;;;6.93;4.55;;;435.60;1305.60;;;;;;5049760;28;20040;-69
2023/03/29 06:23:41;;;;;;;7.53;5.10;;;410.20;1331.20;;;;;;5049357;28;20017;-62
2023/03/29 06:26:07;;;;;;;8.13;4.85;;;409.70;1331.20;;;;;;5035701;28;20033;-64
2023/03/29 06:28:33;;;;;;;7.65;4.30;;;384.00;1356.80;;;;;;5036456;28;20057;-62
2023/03/29 06:31:01;;;;;;;5.65;3.38;;;358.90;1382.40;;;;;;5045993;28;20037;-62
2023/03/29 06:33:31;;;;;;;12.02;8.95;;;384.00;1356.80;;;;;;5028847;28;20091;-62
2023/03/29 06:35:57;;;;;;;9.48;6.78;;;384.40;1305.60;;;;;;5029325;28;20053;-62
2023/03/29 06:38:25;;;;;;;6.75;5.03;;;460.90;1254.40;;;;;;5045663;28;20364;-63
2023/03/29 06:40:51;;;;;;;7.43;4.90;;;486.80;1177.60;;;;;;5048393;28;20052;-64
2023/03/29 06:43:17;;;;;;;8.27;6.05;;;537.90;1126.40;;;;;;5048186;28;20063;-63
2023/03/29 06:45:43;;;;;;;7.97;5.05;;;564.00;1075.20;;;;;;5045153;28;20518;-62
2023/03/29 06:48:11;;;;;;;16.35;7.75;;;589.00;1049.60;;;;;;5044270;28;20205;-64
2023/03/29 06:50:37;;;;;;;12.15;8.25;;;589.70;1024.00;;;;;;5049315;28;20033;-62
2023/03/29 06:53:03;;;;;;;7.70;6.90;;;640.00;972.80;;;;;;5045585;28;20029;-64
2023/03/29 06:55:30;;;;;;;6.47;5.50;;;640.10;947.20;;;;;;5034888;28;20434;-63
2023/03/29 06:57:56;;;;;;;6.93;6.22;;;640.20;921.60;;;;;;5049089;28;20085;-63
2023/03/29 07:00:28;;;;;;;6.93;4.65;;;640.40;896.00;;;;;;5048459;28;20038;-64
2023/03/29 07:03:00;;;;;;;6.37;4.97;;;640.30;896.00;;;;;;5051112;28;20489;-62
2023/03/29 07:05:27;;;;;;;5.05;4.15;;;640.60;896.00;;;;;;5048648;28;20441;-63
2023/03/29 07:07:58;;;;;;;8.80;7.43;;;666.30;870.40;;;;;;5043864;28;20028;-64
2023/03/29 07:10:31;;;;;;;9.85;7.55;;;692.10;844.80;;;;;;5052976;28;20094;-63
2023/03/29 07:13:00;;;;;;;8.55;6.80;;;666.20;870.40;;;;;;5053024;28;20029;-63
2023/03/29 07:15:27;;;;;;;10.43;7.55;;;666.10;870.40;;;;;;5052597;28;20068;-63
2023/03/29 07:17:53;;;;;;;6.65;5.97;;;665.60;896.00;;;;;;5052880;28;20021;-64
2023/03/29 07:20:21;;;;;;;7.70;6.30;;;691.30;844.80;;;;;;5052969;28;20029;-63
2023/03/29 07:22:47;;;;;;;7.40;4.72;;;691.20;844.80;;;;;;5053205;28;20029;-63
2023/03/29 07:25:14;;;;;;;6.82;6.05;;;691.70;819.20;;;;;;5052597;28;20052;-63
2023/03/29 07:27:41;;;;;;;7.57;4.45;;;640.70;844.80;;;;;;5052299;28;20383;-64
2023/03/29 07:30:09;;;;;;;5.18;4.45;;;640.80;844.80;;;;;;5052539;28;20111;-63
2023/03/29 07:32:40;;;;;;;5.30;4.80;;;665.80;870.40;;;;;;5052713;28;20029;-63
2023/03/29 07:35:07;;;;;;;7.35;4.60;;;640.00;870.40;;;;;;5052342;28;20575;-63
2023/03/29 07:37:36;;;;;;;5.38;4.68;;;640.10;896.00;;;;;;5052366;28;20032;-62
2023/03/29 07:40:11;;;;;;;8.38;6.35;;;640.90;844.80;;;;;;5048495;28;20029;-63
2023/03/29 07:42:38;;;;;;;6.97;4.95;;;691.50;844.80;;;;;;5032275;28;20104;-64
2023/03/29 07:45:06;;;;;;;4.88;4.38;;;691.60;819.20;;;;;;5029078;28;20553;-63
2023/03/29 07:47:32;;;;;;;10.93;9.93;;;716.90;819.20;;;;;;5032151;28;20025;-63
2023/03/29 07:49:58;;;;;;;4.93;4.30;;;691.90;819.20;;;;;;5031978;28;20460;-63
2023/03/29 07:52:26;;;;;;;5.63;5.07;;;691.30;819.20;;;;;;5031977;28;20022;-62
2023/03/29 07:54:52;;;;;;;8.43;6.80;;;717.60;793.60;;;;;;5051906;28;20033;-65
2023/03/29 07:57:18;;;;;;;7.93;7.00;;;742.50;819.20;;;;;;5052270;28;20427;-63
2023/03/29 07:59:44;;;;;;;10.27;7.80;;;742.70;844.80;;;;;;5051605;28;20112;-63
2023/03/29 08:02:10;;;;;;;7.35;5.50;;;743.20;819.20;;;;;;5052207;28;20032;-63
2023/03/29 08:04:36;;;;;;;31.35;28.35;;;742.50;819.20;;;;;;5051425;28;20040;-62
2023/03/29 08:07:01;;;;;;;11.52;8.10;;;717.30;819.20;;;;;;5051861;28;20104;-63
2023/03/29 08:09:27;;;;;;;5.18;4.72;;;742.80;819.20;;;;;;5051922;28;20602;-63
2023/03/29 08:11:53;;;;;;;6.25;5.65;;;742.60;819.20;;;;;;5051780;28;20024;-64
2023/03/29 08:14:20;;;;;;;12.18;7.72;;;717.70;793.60;;;;;;5031300;28;20037;-66
2023/03/29 08:16:46;;;;;;;7.85;6.63;;;743.00;819.20;;;;;;5020503;28;20091;-65
2023/03/29 08:19:13;;;;;;;6.05;5.45;;;742.40;844.80;;;;;;5020709;28;20779;-65
2023/03/29 08:21:39;;;;;;;4.68;4.05;;;717.10;819.20;;;;;;5027439;28;20056;-64
2023/03/29 08:24:05;;;;;;;4.97;3.83;;;692.00;819.20;;;;;;5024931;28;20025;-65
2023/03/29 08:26:32;;;;;;;12.55;5.18;;;743.10;819.20;;;;;;5034174;28;20025;-65
2023/03/29 08:28:57;;;;;;;6.95;5.57;;;768.70;793.60;;;;;;5038432;28;20470;-64
2023/03/29 08:31:23;;;;;;;12.80;11.48;;;742.90;819.20;;;;;;5026221;28;20033;-64
2023/03/29 08:33:49;;;;;;;18.45;16.65;;;743.30;819.20;;;;;;5035073;28;20033;-61
2023/03/29 08:36:14;;;;;;;58.28;30.50;;;768.30;819.20;;;;;;5029503;28;20095;-64
2023/03/29 08:38:40;;;;;;;36.60;22.00;;;768.40;844.80;;;;;;5033318;28;20021;-66
2023/03/29 08:41:31;;;;;;;32.53;21.20;;;768.90;793.60;;;;;;5021327;28;20041;-64
2023/03/29 08:44:15;;;;;;;103.38;59.25;;;768.60;819.20;;;;;;5022037;28;20025;-64
2023/03/29 08:47:00;;;;;;;6.40;4.78;;;742.80;819.20;;;;;;5027505;28;20513;-66
2023/03/29 08:49:27;;;;;;;12.10;8.20;;;717.10;844.80;;;;;;5035061;28;20057;-64
2023/03/29 08:52:01;;;;;;;152.70;112.18;;;692.10;819.20;;;;;;5019990;28;20029;-64
2023/03/29 08:54:35;;;;;;;50.97;37.38;;;692.00;819.20;;;;;;5048071;28;20029;-64
2023/03/29 08:57:11;;;;;;;5.97;4.93;;;666.30;896.00;;;;;;5028216;28;20030;-62
2023/03/29 08:59:38;;;;;;;15.98;11.88;;;640.50;896.00;;;;;;5023293;28;20028;-64
2023/03/29 09:02:12;;;;;;;6.20;4.15;;;589.50;947.20;;;;;;5048881;28;20029;-65
2023/03/29 09:04:41;;;;;;;6.38;5.78;;;538.50;998.40;;;;;;5049032;28;20036;-64
2023/03/29 09:07:10;;;;;;;38.40;30.63;;;537.80;1024.00;;;;;;5049331;28;20025;-62
2023/03/29 09:09:37;;;;;;;6.38;3.42;;;487.20;1049.60;;;;;;5049382;28;20040;-65
2023/03/29 09:12:14;;;;;;;7.55;4.43;;;461.50;1075.20;;;;;;5048897;28;20059;-65
2023/03/29 09:14:56;;;;;;;8.13;5.60;;;460.80;1126.40;;;;;;5049116;28;20036;-65
2023/03/29 09:17:37;;;;;;;7.57;3.17;;;435.70;1126.40;;;;;;5048886;28;20475;-64
2023/03/29 09:20:18;;;;;;;10.18;5.57;;;410.30;1203.20;;;;;;5048585;28;20032;-61
2023/03/29 09:23:18;;;;;;;9.10;4.50;;;410.00;1177.60;;;;;;5049009;28;20662;-64
2023/03/29 09:26:05;;;;;;;11.02;6.55;;;410.20;1203.20;;;;;;5048826;28;20056;-60
2023/03/29 09:28:53;;;;;;;9.35;6.63;;;410.20;1177.60;;;;;;5048671;28;20021;-61
2023/03/29 09:31:27;;;;;;;9.68;4.57;;;409.90;1254.40;;;;;;5048740;28;20047;-64
2023/03/29 09:33:56;;;;;;;11.20;6.78;;;409.70;1254.40;;;;;;5047864;28;20029;-64
2023/03/29 09:36:51;;;;;;;7.10;4.30;;;409.90;1228.80;;;;;;5048438;28;20045;-63
2023/03/29 09:39:19;;;;;;;12.23;8.18;;;410.20;1228.80;;;;;;5043022;28;20722;-62
2023/03/29 09:42:07;;;;;;;12.40;6.32;;;410.30;1228.80;;;;;;5048835;28;20123;-62
2023/03/29 09:45:02;;;;;;;8.27;5.85;;;410.30;1228.80;;;;;;5048299;28;20021;-62
2023/03/29 09:47:48;;;;;;;5.38;3.58;;;435.20;1228.80;;;;;;5047897;28;20041;-63
2023/03/29 09:50:36;;;;;;;7.10;4.85;;;435.60;1203.20;;;;;;5048072;28;20024;-62
2023/03/29 09:53:04;;;;;;;9.85;6.53;;;435.90;1228.80;;;;;;5048074;28;20032;-65
2023/03/29 09:55:32;;;;;;;14.38;7.07;;;410.00;1177.60;;;;;;5046640;28;20029;-63
2023/03/29 09:58:01;;;;;;;9.68;4.68;;;435.30;1203.20;;;;;;5048065;28;20018;-65
2023/03/29 10:00:27;;;;;;;8.15;3.60;;;435.30;1177.60;;;;;;5047899;28;20736;-64
2023/03/29 10:02:55;;;;;;;7.60;3.47;;;435.80;1152.00;;;;;;5047937;28;20013;-64
2023/03/29 10:05:24;;;;;;;12.05;9.10;;;435.40;1203.20;;;;;;5047442;28;20116;-63
2023/03/29 10:07:53;;;;;;;9.52;5.80;;;410.30;1203.20;;;;;;5047960;28;20025;-64
2023/03/29 10:10:33;;;;;;;6.07;3.83;;;410.20;1203.20;;;;;;5031727;28;20030;-62
2023/03/29 10:13:04;;;;;;;4.82;3.22;;;410.00;1203.20;;;;;;5045087;28;20021;-63
2023/03/29 10:15:30;;;;;;;4.55;2.72;;;410.00;1203.20;;;;;;5049072;28;20044;-63
2023/03/29 10:18:04;;;;;;;16.55;13.35;;;435.20;1177.60;;;;;;5049157;28;20032;-63
2023/03/29 10:20:33;;;;;;;13.38;10.60;;;410.20;1228.80;;;;;;5049628;28;20029;-62
2023/03/29 10:22:59;;;;;;;10.15;5.05;;;410.20;1228.80;;;;;;5049443;28;20108;-63
2023/03/29 10:25:31;;;;;;;5.22;3.10;;;410.20;1228.80;;;;;;5049490;28;20056;-63
2023/03/29 10:28:07;;;;;;;18.42;11.13;;;410.50;1203.20;;;;;;5049417;28;20370;-62
2023/03/29 10:30:36;;;;;;;70.05;33.53;;;410.00;1203.20;;;;;;5048390;28;20035;-63
2023/03/29 10:33:03;;;;;;;78.43;52.35;;;410.30;1203.20;;;;;;5043055;28;20036;-63
2023/03/29 10:35:38;;;;;;;8.30;5.63;;;410.20;1203.20;;;;;;5040884;28;20131;-63
2023/03/29 10:38:10;;;;;;;6.70;4.53;;;410.10;1254.40;;;;;;5034419;28;20041;-62
2023/03/29 10:40:45;;;;;;;6.43;5.80;;;410.20;1254.40;;;;;;5037008;28;20466;-62
2023/03/29 10:43:37;;;;;;;16.17;14.43;;;409.90;1254.40;;;;;;5049098;28;20112;-62
2023/03/29 10:46:12;;;;;;;5.18;3.40;;;384.90;1228.80;;;;;;5046601;28;20068;-62
2023/03/29 10:48:38;;;;;;;5.38;3.00;;;384.40;1254.40;;;;;;5046780;28;20078;-64
2023/03/29 10:51:06;;;;;;;9.82;7.25;;;384.60;1280.00;;;;;;5046371;28;20033;-62
2023/03/29 10:53:36;;;;;;;6.93;4.75;;;384.60;1254.40;;;;;;5046509;28;20027;-64
2023/03/29 10:56:23;;;;;;;9.05;6.35;;;409.70;1305.60;;;;;;5046413;28;20037;-62
2023/03/29 10:59:15;;;;;;;8.60;3.17;;;409.70;1280.00;;;;;;5046602;28;20045;-64
2023/03/29 11:02:14;;;;;;;16.75;12.35;;;409.90;1305.60;;;;;;5039181;28;20029;-63
2023/03/29 11:04:48;;;;;;;8.23;7.43;;;410.00;1254.40;;;;;;5044498;28;20128;-64
2023/03/29 11:07:34;;;;;;;;;;;410.20;1280.00;;;;;;5047163;28;20060;-64
2023/03/29 11:10:18;;;;;;;8.98;6.28;;;410.10;1254.40;;;;;;5046772;28;19905;-62
2023/03/29 11:13:08;;;;;;;8.68;6.32;;;410.20;1280.00;;;;;;5046120;28;20021;-64
2023/03/29 11:15:39;;;;;;;10.10;5.10;;;410.40;1254.40;;;;;;5046005;28;20036;-62
2023/03/29 11:18:16;;;;;;;11.13;5.85;;;384.90;1228.80;;;;;;5046639;28;20048;-62
2023/03/29 11:20:59;;;;;;;6.45;5.28;;;384.90;1254.40;;;;;;5046182;28;20025;-63
2023/03/29 11:23:31;;;;;;;13.32;11.05;;;409.60;1280.00;;;;;;5047551;28;20098;-63
2023/03/29 11:26:30;;;;;;;21.83;19.73;;;409.90;1280.00;;;;;;5048955;28;20104;-62
2023/03/29 11:29:17;;;;;;;13.02;11.82;;;384.60;1254.40;;;;;;5046448;28;20060;-62
2023/03/29 11:32:07;;;;;;;9.05;5.28;;;409.60;1280.00;;;;;;5045340;28;20056;-63
2023/03/29 11:34:32;;;;;;;9.13;6.22;;;359.00;1280.00;;;;;;5038220;28;20046;-63
2023/03/29 11:37:18;;;;;;;60.00;47.85;;;384.10;1280.00;;;;;;5025998;28;20380;-63
2023/03/29 11:40:11;;;;;;;9.98;8.32;;;384.70;1280.00;;;;;;5026491;28;20034;-63
2023/03/29 11:42:41;;;;;;;9.13;6.28;;;384.60;1254.40;;;;;;5026731;28;20072;-63
2023/03/29 11:45:14;;;;;;;5.63;3.05;;;358.90;1305.60;;;;;;5025942;28;20498;-63
2023/03/29 11:47:43;;;;;;;8.32;4.05;;;359.30;1280.00;;;;;;5026347;28;20045;-63
2023/03/29 11:50:21;;;;;;;6.07;4.25;;;359.20;1280.00;;;;;;5029694;28;20042;-64
2023/03/29 11:53:00;;;;;;;8.90;5.25;;;359.30;1356.80;;;;;;5030100;28;20621;-63
2023/03/29 11:55:32;;;;;;;13.32;5.93;;;384.60;1254.40;;;;;;5029898;28;20653;-62
2023/03/29 11:58:06;;;;;;;8.50;4.88;;;409.70;1305.60;;;;;;5030072;28;20014;-63
2023/03/29 12:00:37;;;;;;;6.70;3.47;;;384.60;1254.40;;;;;;5029440;28;20041;-63
2023/03/29 12:03:17;;;;;;;7.43;4.35;;;409.60;1280.00;;;;;;5029678;28;20395;-62
2023/03/29 12:06:06;;;;;;;5.95;3.78;;;409.90;1254.40;;;;;;5022153;28;20049;-63
2023/03/29 12:08:36;;;;;;;7.57;4.25;;;409.70;1280.00;;;;;;5011803;28;20029;-64
2023/03/29 12:11:08;;;;;;;8.30;5.82;;;410.20;1280.00;;;;;;5012180;28;20025;-62
2023/03/29 12:13:48;;;;;;;9.05;4.55;;;410.30;1280.00;;;;;;5012169;28;20056;-63
2023/03/29 12:16:32;;;;;;;5.68;3.53;;;410.00;1254.40;;;;;;5002172;28;20034;-62
2023/03/29 12:19:01;;;;;;;;;;;410.00;1280.00;;;;;;5012061;28;20030;-63
2023/03/29 12:21:29;;;;;;;5.40;2.70;;;410.30;1254.40;;;;;;5012033;28;19906;-62
2023/03/29 12:23:54;;;;;;;6.63;4.82;;;410.40;1228.80;;;;;;5011836;28;20034;-63
2023/03/29 12:26:26;;;;;;;12.32;10.27;;;409.60;1280.00;;;;;;5011548;28;20030;-63
2023/03/29 12:29:09;;;;;;;8.45;5.28;;;409.90;1254.40;;;;;;4987268;28;20100;-64
2023/03/29 12:31:48;;;;;;;9.02;5.10;;;410.10;1280.00;;;;;;5011787;28;20112;-63
2023/03/29 12:34:34;;;;;;;5.82;2.47;;;410.00;1254.40;;;;;;5020856;28;20045;-64